Terminal Aerodrome Forecast
Issued by NWS Cleveland, OH

Home | Current Version | Previous Version | Graphics & Text | Print | Product List | Glossary On
Versions: 1 2 3 4 5 6 7 8 9 10 11 12 13 14 15 16 17 18 19 20 21 22 23 24 25
000
FTUS41 KCLE 270400 AAB
TAFCAK
TAF AMD
KCAK 270434Z 2705/2724 18006KT P6SM VCSH OVC035
      TEMPO 2705/2707 3SM TSRA BKN015CB OVC025
     FM270700 20003KT 4SM BR SCT012 OVC025
     FM271500 22008KT P6SM OVC030
     FM271800 19012KT P6SM VCTS OVC035CB=

USA.gov is the U.S. government's official web portal to all federal, state and local government web resources and services.